Time;durP1;ratioP1;P1;durP2;ratioP2;P2;SDS_P1;SDS_P2;PMS_P1;PMS_P2;Temp;Humidity;BMP_temperature;BMP_pressure;BME280_temperature;BME280_humidity;BME280_pressure;Samples;Min_cycle;Max_cycle;Signal;HPM_P1;HPM_P2
2023/12/12 00:00:03;;;;;;;43.70;25.83;;;;;;;;;;4372733;32;318471;-81
2023/12/12 00:02:30;;;;;;;45.13;25.53;;;;;;;;;;4363483;32;318436;-81
2023/12/12 00:04:57;;;;;;;49.67;28.63;;;;;;;;;;4372371;32;318515;-82
2023/12/12 00:07:25;;;;;;;43.47;26.20;;;;;;;;;;4362702;32;319552;-82
2023/12/12 00:09:52;;;;;;;53.03;30.77;;;;;;;;;;4373355;32;318680;-82
2023/12/12 00:12:19;;;;;;;48.67;27.77;;;;;;;;;;4362237;32;317636;-82
2023/12/12 00:14:46;;;;;;;48.77;26.53;;;;;;;;;;4372475;32;318478;-81
2023/12/12 00:17:12;;;;;;;33.77;22.10;;;;;;;;;;4362102;32;318400;-81
2023/12/12 00:19:42;;;;;;;33.60;20.90;;;;;;;;;;4373517;32;318470;-81
2023/12/12 00:22:10;;;;;;;32.67;20.00;;;;;;;;;;4363112;32;318462;-81
2023/12/12 00:24:38;;;;;;;30.43;18.73;;;;;;;;;;4372932;32;317918;-81
2023/12/12 00:27:05;;;;;;;38.57;21.30;;;;;;;;;;4373498;32;318410;-81
2023/12/12 00:29:35;;;;;;;34.50;22.23;;;;;;;;;;4360374;32;417623;-81
2023/12/12 00:32:02;;;;;;;45.00;20.47;;;;;;;;;;4375236;32;318355;-81
2023/12/12 00:34:29;;;;;;;37.30;21.43;;;;;;;;;;4362975;32;318588;-81
2023/12/12 00:36:56;;;;;;;28.87;20.13;;;;;;;;;;4383389;32;318439;-81
2023/12/12 00:39:23;;;;;;;35.50;22.10;;;;;;;;;;4377939;32;317885;-81
2023/12/12 00:41:51;;;;;;;28.67;20.63;;;;;;;;;;4388645;32;318628;-81
2023/12/12 00:44:18;;;;;;;37.20;22.90;;;;;;;;;;4377229;32;350631;-81
2023/12/12 00:46:45;;;;;;;43.93;23.67;;;;;;;;;;4375474;32;318752;-81
2023/12/12 00:49:12;;;;;;;42.53;24.63;;;;;;;;;;4367411;32;318649;-81
2023/12/12 00:51:39;;;;;;;36.90;23.00;;;;;;;;;;4384136;32;318669;-81
2023/12/12 00:54:06;;;;;;;38.40;21.87;;;;;;;;;;4363068;32;318612;-81
2023/12/12 00:56:33;;;;;;;37.13;22.40;;;;;;;;;;4380478;32;318109;-82
2023/12/12 00:59:01;;;;;;;39.83;22.57;;;;;;;;;;4387083;32;318661;-82
2023/12/12 01:01:28;;;;;;;36.60;22.67;;;;;;;;;;4377860;32;318465;-81
2023/12/12 01:03:55;;;;;;;45.87;24.40;;;;;;;;;;4388132;32;318241;-81
2023/12/12 01:06:23;;;;;;;38.43;23.50;;;;;;;;;;4377113;32;318195;-81
2023/12/12 01:08:50;;;;;;;38.57;22.00;;;;;;;;;;4387849;32;318482;-81
2023/12/12 01:11:17;;;;;;;36.13;20.57;;;;;;;;;;4377900;32;318920;-81
2023/12/12 01:13:44;;;;;;;38.27;21.67;;;;;;;;;;4380242;32;318415;-81
2023/12/12 01:16:13;;;;;;;43.37;23.23;;;;;;;;;;4362526;32;318530;-81
2023/12/12 01:18:40;;;;;;;42.47;25.43;;;;;;;;;;4371493;32;317927;-81
2023/12/12 01:21:07;;;;;;;43.13;25.20;;;;;;;;;;4362679;32;318458;-81
2023/12/12 01:23:48;;;;;;;47.10;31.03;;;;;;;;;;4372435;32;318304;-81
2023/12/12 01:26:15;;;;;;;51.37;30.97;;;;;;;;;;4361804;32;318548;-81
2023/12/12 01:28:42;;;;;;;51.47;29.50;;;;;;;;;;4372718;32;317190;-81
2023/12/12 01:31:09;;;;;;;61.33;33.73;;;;;;;;;;4360982;32;318571;-81
2023/12/12 01:33:37;;;;;;;64.43;34.17;;;;;;;;;;4371781;32;318463;-81
2023/12/12 01:36:05;;;;;;;57.03;34.50;;;;;;;;;;4372512;32;318572;-81
2023/12/12 01:38:32;;;;;;;63.23;36.50;;;;;;;;;;4358651;32;419197;-81
2023/12/12 01:40:59;;;;;;;69.70;39.93;;;;;;;;;;4371231;32;318468;-81
2023/12/12 01:43:26;;;;;;;74.00;41.40;;;;;;;;;;4362228;32;318385;-81
2023/12/12 01:45:56;;;;;;;65.77;39.10;;;;;;;;;;4372258;32;318748;-81
2023/12/12 01:48:24;;;;;;;75.47;40.73;;;;;;;;;;4361074;32;332861;-81
2023/12/12 01:50:53;;;;;;;76.77;42.73;;;;;;;;;;4373734;32;318503;-81
2023/12/12 01:53:21;;;;;;;83.93;42.73;;;;;;;;;;4360978;32;319347;-81
2023/12/12 01:55:50;;;;;;;70.83;42.20;;;;;;;;;;4371691;32;318460;-81
2023/12/12 01:58:18;;;;;;;75.70;43.77;;;;;;;;;;4362042;32;318321;-81
2023/12/12 02:00:46;;;;;;;83.77;44.87;;;;;;;;;;4372174;32;318654;-81
2023/12/12 02:03:14;;;;;;;73.53;43.00;;;;;;;;;;4361306;32;318380;-81
2023/12/12 02:05:42;;;;;;;77.83;47.40;;;;;;;;;;4370987;32;317794;-82
2023/12/12 02:08:11;;;;;;;79.70;43.53;;;;;;;;;;4362403;32;317696;-82
2023/12/12 02:10:38;;;;;;;65.60;39.67;;;;;;;;;;4371754;32;318355;-81
2023/12/12 02:13:05;;;;;;;82.23;45.40;;;;;;;;;;4372603;32;318464;-81
2023/12/12 02:15:32;;;;;;;80.13;44.47;;;;;;;;;;4359303;32;418849;-82
2023/12/12 02:17:59;;;;;;;70.67;40.37;;;;;;;;;;4372133;32;318392;-81
2023/12/12 02:20:26;;;;;;;75.37;39.83;;;;;;;;;;4360710;32;318058;-81
2023/12/12 02:22:54;;;;;;;75.47;43.27;;;;;;;;;;4370812;32;318376;-81
2023/12/12 02:25:21;;;;;;;78.93;39.50;;;;;;;;;;4360595;32;318435;-81
2023/12/12 02:27:48;;;;;;;53.20;29.50;;;;;;;;;;4371089;32;318455;-81
2023/12/12 02:30:16;;;;;;;49.57;26.17;;;;;;;;;;4361932;32;318375;-81
2023/12/12 02:32:43;;;;;;;45.57;24.70;;;;;;;;;;4371108;32;317638;-82
2023/12/12 02:35:10;;;;;;;40.33;23.33;;;;;;;;;;4360971;32;317895;-81
2023/12/12 02:37:37;;;;;;;38.37;24.33;;;;;;;;;;4370922;32;317936;-81
2023/12/12 02:40:08;;;;;;;41.13;24.03;;;;;;;;;;4370927;32;318413;-81
2023/12/12 02:42:35;;;;;;;44.93;25.93;;;;;;;;;;4358571;32;417257;-82
2023/12/12 02:45:02;;;;;;;42.07;26.37;;;;;;;;;;4370899;32;317802;-82
2023/12/12 02:47:29;;;;;;;37.60;24.57;;;;;;;;;;4359925;32;353963;-82
2023/12/12 02:49:56;;;;;;;40.90;24.77;;;;;;;;;;4371886;32;326147;-82
2023/12/12 02:52:23;;;;;;;58.40;30.30;;;;;;;;;;4362046;32;318579;-82
2023/12/12 02:54:49;;;;;;;51.80;28.80;;;;;;;;;;4373731;32;319140;-80
2023/12/12 02:57:18;;;;;;;41.17;25.60;;;;;;;;;;4376646;32;319274;-80
2023/12/12 02:59:45;;;;;;;46.17;25.20;;;;;;;;;;4387746;32;357861;-83
2023/12/12 03:02:11;;;;;;;44.17;27.13;;;;;;;;;;4380650;32;318575;-82
2023/12/12 03:04:43;;;;;;;42.53;25.60;;;;;;;;;;4390384;32;318845;-82
2023/12/12 03:07:10;;;;;;;43.50;25.20;;;;;;;;;;4379247;32;318375;-81
2023/12/12 03:09:37;;;;;;;35.27;23.97;;;;;;;;;;4388951;32;318664;-81
2023/12/12 03:12:05;;;;;;;50.90;24.50;;;;;;;;;;4388866;32;318555;-81
2023/12/12 03:14:36;;;;;;;42.17;26.40;;;;;;;;;;4377060;32;418264;-81
2023/12/12 03:17:03;;;;;;;54.03;31.37;;;;;;;;;;4389426;32;318758;-81
2023/12/12 03:19:30;;;;;;;53.03;31.23;;;;;;;;;;4381618;32;347465;-81
2023/12/12 03:21:56;;;;;;;53.90;32.63;;;;;;;;;;4403461;32;318533;-81
2023/12/12 03:24:23;;;;;;;50.37;30.17;;;;;;;;;;4379831;32;318543;-81
2023/12/12 03:26:50;;;;;;;54.53;32.00;;;;;;;;;;4389704;32;318528;-81
2023/12/12 03:29:17;;;;;;;55.67;35.90;;;;;;;;;;4379361;32;318772;-81
2023/12/12 03:31:46;;;;;;;47.17;30.50;;;;;;;;;;4387918;32;317600;-81
2023/12/12 03:34:12;;;;;;;48.30;28.87;;;;;;;;;;4370492;32;318838;-81
2023/12/12 03:36:42;;;;;;;48.47;28.93;;;;;;;;;;4374248;32;318264;-81
2023/12/12 03:39:09;;;;;;;43.60;26.50;;;;;;;;;;4363318;32;318594;-81
2023/12/12 03:41:36;;;;;;;45.63;27.17;;;;;;;;;;4373667;32;318682;-81
2023/12/12 03:44:04;;;;;;;41.67;25.23;;;;;;;;;;4377156;32;318304;-81
2023/12/12 03:46:31;;;;;;;40.83;24.93;;;;;;;;;;4370010;32;318351;-81
2023/12/12 03:48:59;;;;;;;53.37;26.47;;;;;;;;;;4378216;32;318623;-81
2023/12/12 03:51:26;;;;;;;43.80;27.77;;;;;;;;;;4374108;32;318301;-81
2023/12/12 03:53:53;;;;;;;45.37;28.10;;;;;;;;;;4385219;32;317599;-81
2023/12/12 03:56:20;;;;;;;48.10;29.57;;;;;;;;;;4374638;32;345015;-81
2023/12/12 03:58:47;;;;;;;53.50;31.50;;;;;;;;;;4384805;32;325953;-81
2023/12/12 04:01:14;;;;;;;49.97;30.63;;;;;;;;;;4364155;32;349790;-81
2023/12/12 04:03:41;;;;;;;47.27;28.73;;;;;;;;;;4372869;32;332951;-81
2023/12/12 04:06:10;;;;;;;54.90;30.50;;;;;;;;;;4362517;32;318706;-81
2023/12/12 04:08:37;;;;;;;46.07;30.27;;;;;;;;;;4372543;32;318816;-81
2023/12/12 04:11:04;;;;;;;55.70;29.50;;;;;;;;;;4372016;32;318528;-82
2023/12/12 04:13:31;;;;;;;50.23;30.67;;;;;;;;;;4363083;32;318816;-81
2023/12/12 04:15:58;;;;;;;50.03;30.33;;;;;;;;;;4372433;32;319372;-81
2023/12/12 04:18:26;;;;;;;53.77;33.07;;;;;;;;;;4362092;32;318461;-81
2023/12/12 04:20:53;;;;;;;56.03;33.03;;;;;;;;;;4372794;32;318010;-81
2023/12/12 04:23:21;;;;;;;59.87;34.50;;;;;;;;;;4362602;32;318878;-81
2023/12/12 04:25:48;;;;;;;58.80;35.20;;;;;;;;;;4371449;32;318621;-81
2023/12/12 04:28:15;;;;;;;57.70;34.43;;;;;;;;;;4362817;32;318601;-81
2023/12/12 04:30:41;;;;;;;81.03;40.87;;;;;;;;;;4372814;32;318666;-81
2023/12/12 04:33:08;;;;;;;103.00;52.00;;;;;;;;;;4362917;32;318567;-81
2023/12/12 04:35:38;;;;;;;93.37;49.20;;;;;;;;;;4372619;32;319647;-81
2023/12/12 04:38:05;;;;;;;101.00;51.83;;;;;;;;;;4372761;32;318559;-80
2023/12/12 04:40:33;;;;;;;81.80;45.87;;;;;;;;;;4360927;32;420413;-81
2023/12/12 04:43:00;;;;;;;71.47;42.70;;;;;;;;;;4372328;32;318405;-82
2023/12/12 04:45:27;;;;;;;77.17;41.90;;;;;;;;;;4362860;32;318630;-82
2023/12/12 04:47:54;;;;;;;60.47;37.33;;;;;;;;;;4372709;32;318109;-81
2023/12/12 04:50:21;;;;;;;56.17;34.60;;;;;;;;;;4361696;32;318151;-81
2023/12/12 04:52:48;;;;;;;59.77;34.00;;;;;;;;;;4371111;32;318258;-80
2023/12/12 04:55:15;;;;;;;72.50;33.27;;;;;;;;;;4361690;32;318481;-81
2023/12/12 04:57:44;;;;;;;50.27;32.10;;;;;;;;;;4385750;32;338049;-81
2023/12/12 05:00:14;;;;;;;52.10;33.20;;;;;;;;;;4378092;32;318239;-81
2023/12/12 05:02:41;;;;;;;49.13;30.73;;;;;;;;;;4388389;32;318590;-81
2023/12/12 05:05:08;;;;;;;53.40;30.20;;;;;;;;;;4375958;32;318555;-81
2023/12/12 05:07:35;;;;;;;56.20;29.87;;;;;;;;;;4385887;32;344263;-82
2023/12/12 05:10:02;;;;;;;47.17;29.43;;;;;;;;;;4385441;32;318571;-82
2023/12/12 05:12:29;;;;;;;45.40;28.20;;;;;;;;;;4362458;32;318380;-82
2023/12/12 05:14:58;;;;;;;47.30;28.13;;;;;;;;;;4382042;32;318535;-82
2023/12/12 05:17:25;;;;;;;49.37;27.20;;;;;;;;;;4377794;32;318503;-81
2023/12/12 05:19:52;;;;;;;45.27;28.53;;;;;;;;;;4388225;32;318573;-81
2023/12/12 05:22:19;;;;;;;44.23;27.50;;;;;;;;;;4376297;32;318122;-81
2023/12/12 05:24:45;;;;;;;46.87;27.30;;;;;;;;;;4372746;32;317678;-81
2023/12/12 05:27:12;;;;;;;40.37;26.27;;;;;;;;;;4362756;32;318317;-81
2023/12/12 05:29:39;;;;;;;52.33;29.70;;;;;;;;;;4371538;32;318302;-82
2023/12/12 05:32:08;;;;;;;49.27;30.43;;;;;;;;;;4366136;32;318509;-82
2023/12/12 05:34:35;;;;;;;45.60;31.03;;;;;;;;;;4372096;32;319068;-82
2023/12/12 05:37:03;;;;;;;55.30;36.03;;;;;;;;;;4375824;32;318455;-81
2023/12/12 05:39:30;;;;;;;66.73;37.27;;;;;;;;;;4376124;32;318225;-81
2023/12/12 05:41:57;;;;;;;66.53;38.07;;;;;;;;;;4383571;32;317237;-82
2023/12/12 05:44:24;;;;;;;60.77;38.03;;;;;;;;;;4360798;32;318309;-82
2023/12/12 05:46:52;;;;;;;77.53;45.10;;;;;;;;;;4372415;32;318174;-82
2023/12/12 05:49:21;;;;;;;93.90;54.67;;;;;;;;;;4362254;32;318133;-82
2023/12/12 05:51:48;;;;;;;100.23;55.03;;;;;;;;;;4370939;32;350120;-82
2023/12/12 05:54:15;;;;;;;104.97;60.13;;;;;;;;;;4361178;32;319405;-82
2023/12/12 05:56:45;;;;;;;116.43;63.10;;;;;;;;;;4380279;32;319331;-82
2023/12/12 05:59:14;;;;;;;98.03;57.73;;;;;;;;;;4377429;32;319468;-82
2023/12/12 06:01:41;;;;;;;103.90;60.53;;;;;;;;;;4387384;32;317864;-83
2023/12/12 06:04:11;;;;;;;114.50;63.77;;;;;;;;;;4374550;32;341168;-82
2023/12/12 06:06:43;;;;;;;107.00;64.57;;;;;;;;;;4387501;32;319285;-82
2023/12/12 06:09:11;;;;;;;112.07;65.17;;;;;;;;;;4374908;32;401484;-82
2023/12/12 06:11:38;;;;;;;111.47;64.07;;;;;;;;;;4387348;32;318697;-82
2023/12/12 06:14:05;;;;;;;117.33;60.50;;;;;;;;;;4385741;32;318693;-82
2023/12/12 06:16:33;;;;;;;113.53;58.07;;;;;;;;;;4372822;32;418147;-82
2023/12/12 06:19:04;;;;;;;82.17;53.43;;;;;;;;;;4376374;32;319396;-81
2023/12/12 06:21:32;;;;;;;94.33;55.70;;;;;;;;;;4362282;32;317748;-82
2023/12/12 06:24:01;;;;;;;102.33;55.63;;;;;;;;;;4371224;32;317280;-83
2023/12/12 06:26:28;;;;;;;105.67;61.07;;;;;;;;;;4362658;32;319368;-84
2023/12/12 06:28:55;;;;;;;90.50;53.93;;;;;;;;;;4375396;32;318538;-84
2023/12/12 06:31:23;;;;;;;96.83;50.90;;;;;;;;;;4366738;32;317934;-84
2023/12/12 06:33:51;;;;;;;94.47;52.33;;;;;;;;;;4376651;32;317660;-84
2023/12/12 06:36:18;;;;;;;89.97;51.43;;;;;;;;;;4366938;32;318312;-83
2023/12/12 06:38:45;;;;;;;80.27;47.67;;;;;;;;;;4375448;32;318243;-85
2023/12/12 06:41:13;;;;;;;86.43;50.63;;;;;;;;;;4366680;32;318239;-84
2023/12/12 06:43:42;;;;;;;85.13;51.43;;;;;;;;;;4376454;32;318233;-85
2023/12/12 06:46:09;;;;;;;97.23;54.37;;;;;;;;;;4367226;32;318161;-85
2023/12/12 06:48:37;;;;;;;101.87;61.10;;;;;;;;;;4376616;32;318359;-85
2023/12/12 06:51:06;;;;;;;99.97;57.53;;;;;;;;;;4386465;32;318472;-84
2023/12/12 06:53:33;;;;;;;94.60;54.47;;;;;;;;;;4363293;32;418324;-84
2023/12/12 06:56:02;;;;;;;92.00;55.33;;;;;;;;;;4376085;32;317515;-85
2023/12/12 06:58:31;;;;;;;103.00;57.40;;;;;;;;;;4368051;32;317613;-82
2023/12/12 07:00:58;;;;;;;107.90;62.43;;;;;;;;;;4373007;32;318480;-82
2023/12/12 07:03:25;;;;;;;124.30;70.67;;;;;;;;;;4363615;32;319191;-83
2023/12/12 07:05:52;;;;;;;118.70;65.53;;;;;;;;;;4374771;32;319924;-83
2023/12/12 07:08:19;;;;;;;125.67;72.90;;;;;;;;;;4365575;32;319313;-82
2023/12/12 07:10:46;;;;;;;119.87;66.37;;;;;;;;;;4373874;32;321568;-82
2023/12/12 07:13:16;;;;;;;111.13;64.73;;;;;;;;;;4362655;32;318522;-82
2023/12/12 07:15:45;;;;;;;109.00;55.87;;;;;;;;;;4373513;32;319171;-82
2023/12/12 07:18:14;;;;;;;109.83;57.17;;;;;;;;;;4364598;32;318887;-83
2023/12/12 07:20:41;;;;;;;100.77;54.47;;;;;;;;;;4374617;32;318525;-82
2023/12/12 07:23:08;;;;;;;95.97;53.13;;;;;;;;;;4362563;32;319320;-83
2023/12/12 07:25:35;;;;;;;87.17;49.27;;;;;;;;;;4373634;32;317912;-82
2023/12/12 07:28:03;;;;;;;102.83;57.30;;;;;;;;;;4375546;32;318023;-85
2023/12/12 07:30:30;;;;;;;90.83;50.13;;;;;;;;;;4367129;32;318277;-85
2023/12/12 07:32:59;;;;;;;88.30;50.43;;;;;;;;;;4379339;32;318281;-85
2023/12/12 07:35:25;;;;;;;89.57;46.23;;;;;;;;;;4366430;32;318115;-85
2023/12/12 07:37:52;;;;;;;61.23;40.80;;;;;;;;;;4375639;32;317449;-85
2023/12/12 07:40:19;;;;;;;65.77;35.33;;;;;;;;;;4366037;32;317289;-85
2023/12/12 07:42:46;;;;;;;60.13;32.67;;;;;;;;;;4376335;32;317645;-84
2023/12/12 07:45:13;;;;;;;68.53;42.00;;;;;;;;;;4363328;32;317919;-83
2023/12/12 07:47:43;;;;;;;58.27;35.20;;;;;;;;;;4374455;32;317686;-84
2023/12/12 07:50:12;;;;;;;64.80;36.27;;;;;;;;;;4368510;32;318602;-83
2023/12/12 07:52:39;;;;;;;53.27;32.70;;;;;;;;;;4381403;32;317357;-84
2023/12/12 07:55:06;;;;;;;62.77;38.40;;;;;;;;;;4377710;32;317496;-83
2023/12/12 07:57:33;;;;;;;59.77;37.63;;;;;;;;;;4364915;32;419246;-84
2023/12/12 08:00:00;;;;;;;73.30;43.60;;;;;;;;;;4389751;32;318115;-84
2023/12/12 08:02:27;;;;;;;77.53;44.30;;;;;;;;;;4367900;32;318216;-82
2023/12/12 08:04:54;;;;;;;95.67;58.33;;;;;;;;;;4378026;32;317383;-83
2023/12/12 08:07:25;;;;;;;117.87;69.60;;;;;;;;;;4364127;32;317918;-83
2023/12/12 08:09:52;;;;;;;113.07;72.60;;;;;;;;;;4374074;32;318448;-84
2023/12/12 08:12:25;;;;;;;106.87;67.63;;;;;;;;;;4362407;32;319180;-84
2023/12/12 08:14:53;;;;;;;112.83;68.57;;;;;;;;;;4373370;32;340390;-83
2023/12/12 08:17:24;;;;;;;109.47;69.13;;;;;;;;;;4365014;32;319262;-82
2023/12/12 08:19:51;;;;;;;108.80;67.37;;;;;;;;;;4375317;32;319118;-83
2023/12/12 08:22:18;;;;;;;107.67;65.53;;;;;;;;;;4366041;32;319201;-82
2023/12/12 08:24:50;;;;;;;101.63;59.30;;;;;;;;;;4389372;32;319456;-84
2023/12/12 08:27:18;;;;;;;84.07;53.67;;;;;;;;;;4365569;32;318342;-83
2023/12/12 08:29:45;;;;;;;85.73;53.40;;;;;;;;;;4377036;32;317874;-83
2023/12/12 08:32:12;;;;;;;87.43;53.27;;;;;;;;;;4364267;32;318131;-84
2023/12/12 08:34:39;;;;;;;96.90;54.77;;;;;;;;;;4377111;32;317315;-84
2023/12/12 08:37:06;;;;;;;92.30;52.43;;;;;;;;;;4373285;32;318040;-83
2023/12/12 08:39:33;;;;;;;87.50;48.63;;;;;;;;;;4359104;32;417492;-84
2023/12/12 08:42:01;;;;;;;74.63;46.63;;;;;;;;;;4372405;32;317566;-85
2023/12/12 08:44:28;;;;;;;71.27;46.23;;;;;;;;;;4363061;32;318390;-84
2023/12/12 08:46:55;;;;;;;73.03;42.87;;;;;;;;;;4373298;32;318479;-84
2023/12/12 08:49:27;;;;;;;64.53;42.00;;;;;;;;;;4360855;32;346987;-84
2023/12/12 08:51:54;;;;;;;56.63;36.53;;;;;;;;;;4372192;32;318290;-83
2023/12/12 08:54:21;;;;;;;54.63;36.47;;;;;;;;;;4362648;32;357204;-84
2023/12/12 08:56:52;;;;;;;51.67;34.87;;;;;;;;;;4382896;32;317860;-84
2023/12/12 08:59:23;;;;;;;59.03;33.77;;;;;;;;;;4378435;32;318162;-84
2023/12/12 09:01:50;;;;;;;53.20;28.97;;;;;;;;;;4389446;32;318021;-85
2023/12/12 09:04:17;;;;;;;38.40;27.23;;;;;;;;;;4380328;32;334617;-84
2023/12/12 09:06:45;;;;;;;54.50;31.33;;;;;;;;;;4387858;32;317270;-84
2023/12/12 09:09:13;;;;;;;42.60;28.40;;;;;;;;;;4378374;32;339278;-84
2023/12/12 09:11:40;;;;;;;37.97;25.47;;;;;;;;;;4388541;32;318562;-84
2023/12/12 09:14:08;;;;;;;48.30;29.00;;;;;;;;;;4375368;32;331571;-83
2023/12/12 09:16:37;;;;;;;45.27;28.83;;;;;;;;;;4388541;32;317581;-84
2023/12/12 09:19:04;;;;;;;50.53;31.17;;;;;;;;;;4387201;32;317925;-84
2023/12/12 09:21:31;;;;;;;47.87;29.20;;;;;;;;;;4375151;32;334338;-84
2023/12/12 09:23:58;;;;;;;45.80;27.53;;;;;;;;;;4369600;32;317410;-84
2023/12/12 09:26:25;;;;;;;58.87;30.33;;;;;;;;;;4363275;32;317654;-85
2023/12/12 09:28:52;;;;;;;59.50;29.73;;;;;;;;;;4373805;32;318233;-82
2023/12/12 09:31:26;;;;;;;46.10;30.73;;;;;;;;;;4362295;32;317537;-81
2023/12/12 09:33:55;;;;;;;48.53;30.50;;;;;;;;;;4372815;32;318570;-82
2023/12/12 09:36:22;;;;;;;45.13;29.73;;;;;;;;;;4362377;32;318230;-82
2023/12/12 09:38:49;;;;;;;58.80;35.37;;;;;;;;;;4372212;32;318038;-82
2023/12/12 09:41:19;;;;;;;64.47;40.13;;;;;;;;;;4360760;32;317659;-82
2023/12/12 09:43:48;;;;;;;70.23;41.03;;;;;;;;;;4370566;32;318147;-81
2023/12/12 09:46:16;;;;;;;71.87;41.13;;;;;;;;;;4360707;32;318388;-82
2023/12/12 09:48:44;;;;;;;66.90;39.93;;;;;;;;;;4370914;32;318197;-81
2023/12/12 09:51:13;;;;;;;63.83;42.90;;;;;;;;;;4360213;32;317730;-81
2023/12/12 09:53:46;;;;;;;61.40;37.93;;;;;;;;;;4370787;32;317499;-84
2023/12/12 09:56:15;;;;;;;53.77;34.10;;;;;;;;;;4361515;32;318299;-82
2023/12/12 09:58:43;;;;;;;58.77;37.50;;;;;;;;;;4368536;32;317799;-80
2023/12/12 10:01:13;;;;;;;64.13;39.37;;;;;;;;;;4362206;32;318231;-80
2023/12/12 10:03:49;;;;;;;59.60;38.37;;;;;;;;;;4372683;32;317963;-80
2023/12/12 10:06:18;;;;;;;65.77;43.17;;;;;;;;;;4363343;32;349498;-81
2023/12/12 10:08:46;;;;;;;70.60;43.13;;;;;;;;;;4369640;32;321064;-80
2023/12/12 10:11:14;;;;;;;63.80;40.70;;;;;;;;;;4361257;32;318195;-80
2023/12/12 10:13:53;;;;;;;56.80;38.00;;;;;;;;;;4370913;32;317266;-82
2023/12/12 10:16:30;;;;;;;53.17;36.50;;;;;;;;;;4360742;32;318341;-82
2023/12/12 10:19:01;;;;;;;59.90;36.17;;;;;;;;;;4370939;32;319264;-81
2023/12/12 10:21:30;;;;;;;60.53;34.07;;;;;;;;;;4360374;32;319445;-81
2023/12/12 10:23:58;;;;;;;74.33;32.30;;;;;;;;;;4379208;32;318633;-80
2023/12/12 10:26:26;;;;;;;50.53;30.60;;;;;;;;;;4373773;32;319542;-81
2023/12/12 10:28:55;;;;;;;43.73;22.63;;;;;;;;;;4384089;32;319340;-80
2023/12/12 10:31:24;;;;;;;38.53;21.67;;;;;;;;;;4366740;32;318598;-81
2023/12/12 10:33:51;;;;;;;35.10;19.80;;;;;;;;;;4371106;32;318560;-80
2023/12/12 10:36:19;;;;;;;33.97;19.57;;;;;;;;;;4360559;32;330141;-83
2023/12/12 10:38:47;;;;;;;34.77;18.53;;;;;;;;;;4370247;32;318684;-82
2023/12/12 10:41:18;;;;;;;32.27;16.40;;;;;;;;;;4361090;32;319011;-82
2023/12/12 10:43:47;;;;;;;21.43;15.23;;;;;;;;;;4371536;32;319233;-83
2023/12/12 10:46:15;;;;;;;20.77;15.23;;;;;;;;;;4359909;32;319420;-82
2023/12/12 10:48:47;;;;;;;26.60;13.90;;;;;;;;;;4371846;32;319363;-85
2023/12/12 10:51:15;;;;;;;22.67;13.27;;;;;;;;;;4361131;32;319246;-84
2023/12/12 10:53:43;;;;;;;21.13;11.90;;;;;;;;;;4381438;32;317265;-84
2023/12/12 10:56:13;;;;;;;15.50;10.00;;;;;;;;;;4382787;32;318950;-82
2023/12/12 10:58:41;;;;;;;19.60;11.57;;;;;;;;;;4413593;32;318835;-81
2023/12/12 11:01:12;;;;;;;23.60;12.83;;;;;;;;;;4393366;32;318331;-81
2023/12/12 11:03:40;;;;;;;42.77;25.20;;;;;;;;;;4400811;32;318627;-84
2023/12/12 11:06:11;;;;;;;14.40;10.67;;;;;;;;;;4393442;32;319422;-82
2023/12/12 11:08:38;;;;;;;22.50;13.43;;;;;;;;;;4390687;32;319042;-83
2023/12/12 11:11:11;;;;;;;20.03;13.93;;;;;;;;;;4388571;32;318311;-84
2023/12/12 11:13:42;;;;;;;22.53;14.37;;;;;;;;;;4373861;32;419927;-83
2023/12/12 11:16:12;;;;;;;25.40;13.40;;;;;;;;;;4379793;32;318569;-81
2023/12/12 11:18:43;;;;;;;26.70;12.87;;;;;;;;;;4389250;32;319429;-82
2023/12/12 11:21:38;;;;;;;22.27;14.13;;;;;;;;;;4378476;32;318633;-82
2023/12/12 11:24:05;;;;;;;17.73;12.63;;;;;;;;;;4388498;32;318630;-82
2023/12/12 11:26:33;;;;;;;23.30;16.60;;;;;;;;;;4377012;32;417940;-81
2023/12/12 11:29:02;;;;;;;24.83;15.17;;;;;;;;;;4394701;32;318434;-83
2023/12/12 11:31:29;;;;;;;21.20;13.63;;;;;;;;;;4379430;32;319152;-83
2023/12/12 11:34:12;;;;;;;30.27;18.90;;;;;;;;;;4391970;32;318904;-82
2023/12/12 11:36:50;;;;;;;26.00;16.40;;;;;;;;;;4375535;32;418445;-83
2023/12/12 11:39:24;;;;;;;24.17;15.33;;;;;;;;;;4379321;32;318360;-82
2023/12/12 11:41:52;;;;;;;40.97;18.73;;;;;;;;;;4388556;32;319136;-81
2023/12/12 11:44:22;;;;;;;22.50;14.67;;;;;;;;;;4378628;32;318484;-81
2023/12/12 11:47:07;;;;;;;31.37;13.43;;;;;;;;;;4388736;32;319732;-81
2023/12/12 11:49:34;;;;;;;33.40;16.87;;;;;;;;;;4374018;32;416879;-82
2023/12/12 11:52:01;;;;;;;22.43;12.47;;;;;;;;;;4386592;32;319267;-81
2023/12/12 11:54:28;;;;;;;21.00;12.83;;;;;;;;;;4376794;32;319515;-81
2023/12/12 11:56:57;;;;;;;16.07;10.13;;;;;;;;;;4386594;32;318745;-81
2023/12/12 11:59:27;;;;;;;15.80;8.37;;;;;;;;;;4377422;32;318990;-80
2023/12/12 12:01:56;;;;;;;21.83;12.03;;;;;;;;;;4387187;32;317998;-80
2023/12/12 12:04:24;;;;;;;23.43;10.63;;;;;;;;;;4377401;32;319792;-80
2023/12/12 12:06:54;;;;;;;12.63;9.00;;;;;;;;;;4386671;32;318599;-81
2023/12/12 12:09:21;;;;;;;18.33;10.53;;;;;;;;;;4377332;32;317661;-81
2023/12/12 12:11:49;;;;;;;21.87;10.73;;;;;;;;;;4387452;32;319368;-80
2023/12/12 12:14:22;;;;;;;18.67;9.63;;;;;;;;;;4378811;32;342623;-80
2023/12/12 12:16:58;;;;;;;21.57;10.50;;;;;;;;;;4388973;32;318397;-81
2023/12/12 12:19:33;;;;;;;17.00;9.63;;;;;;;;;;4378862;32;319401;-79
2023/12/12 12:22:05;;;;;;;27.73;11.27;;;;;;;;;;4386976;32;318344;-78
2023/12/12 12:24:33;;;;;;;24.93;10.53;;;;;;;;;;4361783;32;318784;-78
2023/12/12 12:27:01;;;;;;;19.33;9.83;;;;;;;;;;4365783;32;359231;-80
2023/12/12 12:29:27;;;;;;;16.03;7.83;;;;;;;;;;4365515;32;318849;-79
2023/12/12 12:31:56;;;;;;;17.17;6.87;;;;;;;;;;4384550;32;318514;-79
2023/12/12 12:34:25;;;;;;;15.97;8.87;;;;;;;;;;4376230;32;336542;-80
2023/12/12 12:36:55;;;;;;;19.70;9.30;;;;;;;;;;4387250;32;318591;-81
2023/12/12 12:39:22;;;;;;;13.43;7.53;;;;;;;;;;4377500;32;322965;-80
2023/12/12 12:41:54;;;;;;;16.37;7.70;;;;;;;;;;4388325;32;335505;-81
2023/12/12 12:44:21;;;;;;;20.23;8.20;;;;;;;;;;4377267;32;318385;-80
2023/12/12 12:46:50;;;;;;;21.00;11.63;;;;;;;;;;4387813;32;318872;-79
2023/12/12 12:49:18;;;;;;;19.97;10.33;;;;;;;;;;4375741;32;328510;-79
2023/12/12 12:51:47;;;;;;;14.97;7.83;;;;;;;;;;4388063;32;319505;-79
2023/12/12 12:54:16;;;;;;;21.23;10.40;;;;;;;;;;4378514;32;318440;-80
2023/12/12 12:56:44;;;;;;;20.00;11.83;;;;;;;;;;4395580;32;319584;-81
2023/12/12 12:59:13;;;;;;;23.93;11.77;;;;;;;;;;4392843;32;319432;-80
2023/12/12 13:01:41;;;;;;;19.70;10.60;;;;;;;;;;4404201;32;319390;-79
2023/12/12 13:04:09;;;;;;;40.33;12.23;;;;;;;;;;4393274;32;319369;-78
2023/12/12 13:06:39;;;;;;;25.27;12.27;;;;;;;;;;4403381;32;319180;-83
2023/12/12 13:09:09;;;;;;;25.30;13.90;;;;;;;;;;4390534;32;319370;-82
2023/12/12 13:11:38;;;;;;;27.97;13.33;;;;;;;;;;4376936;32;419772;-80
2023/12/12 13:14:05;;;;;;;33.93;13.87;;;;;;;;;;4395472;32;319262;-80
2023/12/12 13:16:32;;;;;;;21.57;12.77;;;;;;;;;;4386705;32;418357;-80
2023/12/12 13:18:59;;;;;;;24.73;13.17;;;;;;;;;;4398593;32;318106;-81
2023/12/12 13:21:27;;;;;;;20.77;14.43;;;;;;;;;;4386451;32;319378;-82
2023/12/12 13:23:56;;;;;;;14.47;8.33;;;;;;;;;;4386209;32;319292;-81
2023/12/12 13:26:23;;;;;;;18.20;10.60;;;;;;;;;;4393593;32;318549;-80
2023/12/12 13:28:52;;;;;;;28.00;17.13;;;;;;;;;;4377022;32;318970;-80
2023/12/12 13:31:20;;;;;;;28.50;16.57;;;;;;;;;;4386262;32;320207;-81
2023/12/12 13:33:48;;;;;;;58.97;35.77;;;;;;;;;;4376472;32;318972;-79
2023/12/12 13:36:19;;;;;;;63.53;35.37;;;;;;;;;;4384328;32;319930;-79
2023/12/12 13:38:46;;;;;;;31.23;16.27;;;;;;;;;;4376247;32;319687;-81
2023/12/12 13:41:15;;;;;;;27.60;14.73;;;;;;;;;;4385242;32;318930;-83
2023/12/12 13:43:42;;;;;;;41.47;19.73;;;;;;;;;;4373582;32;329093;-80
2023/12/12 13:46:09;;;;;;;39.53;21.20;;;;;;;;;;4385134;32;319555;-81
2023/12/12 13:48:39;;;;;;;32.33;22.40;;;;;;;;;;4386132;32;319688;-80
2023/12/12 13:51:07;;;;;;;45.60;26.10;;;;;;;;;;4372975;32;417814;-81
2023/12/12 13:53:34;;;;;;;81.43;52.10;;;;;;;;;;4384919;32;319032;-81
2023/12/12 13:56:01;;;;;;;77.10;47.93;;;;;;;;;;4379301;32;318870;-80
2023/12/12 13:58:30;;;;;;;47.50;29.57;;;;;;;;;;4386187;32;318973;-80
2023/12/12 14:00:57;;;;;;;53.43;33.90;;;;;;;;;;4375716;32;321864;-80
2023/12/12 14:03:24;;;;;;;44.47;30.17;;;;;;;;;;4385297;32;319939;-81
2023/12/12 14:05:51;;;;;;;102.00;71.60;;;;;;;;;;4374372;32;319752;-81
2023/12/12 14:08:18;;;;;;;86.63;65.33;;;;;;;;;;4385081;32;320002;-80